sensor_id;sensor_type;location;lat;lon;timestamp;P1;durP1;ratioP1;P2;durP2;ratioP2
6077;SDS011;3067;49.470;10.394;2023-07-28T00:01:27;3.80;;;3.60;;
6077;SDS011;3067;49.470;10.394;2023-07-28T00:03:55;4.30;;;4.00;;
6077;SDS011;3067;49.470;10.394;2023-07-28T00:06:23;4.87;;;3.80;;
6077;SDS011;3067;49.470;10.394;2023-07-28T00:08:50;4.60;;;4.07;;
6077;SDS011;3067;49.470;10.394;2023-07-28T00:11:19;6.27;;;3.53;;
6077;SDS011;3067;49.470;10.394;2023-07-28T00:13:47;3.93;;;3.70;;
6077;SDS011;3067;49.470;10.394;2023-07-28T00:16:14;5.40;;;3.60;;
6077;SDS011;3067;49.470;10.394;2023-07-28T00:18:41;3.70;;;3.50;;
6077;SDS011;3067;49.470;10.394;2023-07-28T00:21:09;3.83;;;3.53;;
6077;SDS011;3067;49.470;10.394;2023-07-28T00:23:36;5.53;;;3.50;;
6077;SDS011;3067;49.470;10.394;2023-07-28T00:26:04;4.00;;;3.70;;
6077;SDS011;3067;49.470;10.394;2023-07-28T00:28:33;4.40;;;4.10;;
6077;SDS011;3067;49.470;10.394;2023-07-28T00:31:00;3.93;;;3.73;;
6077;SDS011;3067;49.470;10.394;2023-07-28T00:33:27;8.40;;;4.00;;
6077;SDS011;3067;49.470;10.394;2023-07-28T00:35:55;3.57;;;3.37;;
6077;SDS011;3067;49.470;10.394;2023-07-28T00:38:22;4.00;;;3.80;;
6077;SDS011;3067;49.470;10.394;2023-07-28T00:40:50;3.80;;;3.50;;
6077;SDS011;3067;49.470;10.394;2023-07-28T00:43:17;3.83;;;3.60;;
6077;SDS011;3067;49.470;10.394;2023-07-28T00:45:46;4.33;;;3.30;;
6077;SDS011;3067;49.470;10.394;2023-07-28T00:48:14;8.40;;;3.70;;
6077;SDS011;3067;49.470;10.394;2023-07-28T00:50:42;4.20;;;3.90;;
6077;SDS011;3067;49.470;10.394;2023-07-28T00:53:11;3.87;;;3.40;;
6077;SDS011;3067;49.470;10.394;2023-07-28T00:55:39;4.87;;;4.00;;
6077;SDS011;3067;49.470;10.394;2023-07-28T00:58:06;4.53;;;4.07;;
6077;SDS011;3067;49.470;10.394;2023-07-28T01:00:34;4.80;;;3.43;;
6077;SDS011;3067;49.470;10.394;2023-07-28T01:03:03;3.50;;;3.20;;
6077;SDS011;3067;49.470;10.394;2023-07-28T01:05:32;3.90;;;3.60;;
6077;SDS011;3067;49.470;10.394;2023-07-28T01:08:01;4.30;;;3.90;;
6077;SDS011;3067;49.470;10.394;2023-07-28T01:10:30;4.03;;;3.73;;
6077;SDS011;3067;49.470;10.394;2023-07-28T01:12:58;3.50;;;3.20;;
6077;SDS011;3067;49.470;10.394;2023-07-28T01:15:26;4.70;;;3.60;;
6077;SDS011;3067;49.470;10.394;2023-07-28T01:17:54;4.77;;;4.30;;
6077;SDS011;3067;49.470;10.394;2023-07-28T01:20:22;4.00;;;3.33;;
6077;SDS011;3067;49.470;10.394;2023-07-28T01:23:01;4.10;;;3.90;;
6077;SDS011;3067;49.470;10.394;2023-07-28T01:25:36;7.03;;;3.97;;
6077;SDS011;3067;49.470;10.394;2023-07-28T01:28:05;4.10;;;3.80;;
6077;SDS011;3067;49.470;10.394;2023-07-28T01:30:33;7.03;;;4.10;;
6077;SDS011;3067;49.470;10.394;2023-07-28T01:33:00;4.10;;;3.80;;
6077;SDS011;3067;49.470;10.394;2023-07-28T01:35:27;5.70;;;4.10;;
6077;SDS011;3067;49.470;10.394;2023-07-28T01:37:55;6.60;;;3.77;;
6077;SDS011;3067;49.470;10.394;2023-07-28T01:40:22;6.00;;;4.43;;
6077;SDS011;3067;49.470;10.394;2023-07-28T01:42:50;4.27;;;3.87;;
6077;SDS011;3067;49.470;10.394;2023-07-28T01:45:18;5.10;;;4.70;;
6077;SDS011;3067;49.470;10.394;2023-07-28T01:47:46;8.33;;;4.50;;
6077;SDS011;3067;49.470;10.394;2023-07-28T01:50:13;5.73;;;4.53;;
6077;SDS011;3067;49.470;10.394;2023-07-28T01:52:41;7.90;;;4.57;;
6077;SDS011;3067;49.470;10.394;2023-07-28T01:55:08;4.70;;;4.30;;
6077;SDS011;3067;49.470;10.394;2023-07-28T01:57:39;4.77;;;4.37;;
6077;SDS011;3067;49.470;10.394;2023-07-28T02:00:07;8.00;;;5.20;;
6077;SDS011;3067;49.470;10.394;2023-07-28T02:02:36;6.97;;;4.67;;
6077;SDS011;3067;49.470;10.394;2023-07-28T02:05:03;6.10;;;5.17;;
6077;SDS011;3067;49.470;10.394;2023-07-28T02:07:31;5.90;;;4.50;;
6077;SDS011;3067;49.470;10.394;2023-07-28T02:09:59;5.40;;;4.70;;
6077;SDS011;3067;49.470;10.394;2023-07-28T02:12:26;8.27;;;4.40;;
6077;SDS011;3067;49.470;10.394;2023-07-28T02:14:54;5.83;;;4.37;;
6077;SDS011;3067;49.470;10.394;2023-07-28T02:17:21;4.77;;;4.43;;
6077;SDS011;3067;49.470;10.394;2023-07-28T02:19:50;4.57;;;4.07;;
6077;SDS011;3067;49.470;10.394;2023-07-28T02:22:17;7.87;;;4.73;;
6077;SDS011;3067;49.470;10.394;2023-07-28T02:24:45;5.13;;;4.03;;
6077;SDS011;3067;49.470;10.394;2023-07-28T02:27:12;5.30;;;4.80;;
6077;SDS011;3067;49.470;10.394;2023-07-28T02:29:39;5.17;;;4.67;;
6077;SDS011;3067;49.470;10.394;2023-07-28T02:32:07;5.70;;;5.20;;
6077;SDS011;3067;49.470;10.394;2023-07-28T02:34:35;5.33;;;4.83;;
6077;SDS011;3067;49.470;10.394;2023-07-28T02:37:04;5.33;;;4.90;;
6077;SDS011;3067;49.470;10.394;2023-07-28T02:39:31;9.83;;;4.80;;
6077;SDS011;3067;49.470;10.394;2023-07-28T02:41:59;7.80;;;4.90;;
6077;SDS011;3067;49.470;10.394;2023-07-28T02:44:26;5.53;;;4.53;;
6077;SDS011;3067;49.470;10.394;2023-07-28T02:46:53;7.77;;;5.13;;
6077;SDS011;3067;49.470;10.394;2023-07-28T02:49:21;5.10;;;4.77;;
6077;SDS011;3067;49.470;10.394;2023-07-28T02:51:51;5.70;;;4.67;;
6077;SDS011;3067;49.470;10.394;2023-07-28T02:54:20;5.00;;;4.60;;
6077;SDS011;3067;49.470;10.394;2023-07-28T02:56:49;6.60;;;5.13;;
6077;SDS011;3067;49.470;10.394;2023-07-28T02:59:16;4.87;;;4.50;;
6077;SDS011;3067;49.470;10.394;2023-07-28T03:01:43;4.80;;;4.50;;
6077;SDS011;3067;49.470;10.394;2023-07-28T03:04:11;4.70;;;4.40;;
6077;SDS011;3067;49.470;10.394;2023-07-28T03:06:38;5.03;;;4.20;;
6077;SDS011;3067;49.470;10.394;2023-07-28T03:09:05;7.83;;;4.80;;
6077;SDS011;3067;49.470;10.394;2023-07-28T03:11:34;7.17;;;4.53;;
6077;SDS011;3067;49.470;10.394;2023-07-28T03:14:02;4.57;;;4.37;;
6077;SDS011;3067;49.470;10.394;2023-07-28T03:16:29;7.20;;;4.13;;
6077;SDS011;3067;49.470;10.394;2023-07-28T03:18:56;5.50;;;4.00;;
6077;SDS011;3067;49.470;10.394;2023-07-28T03:21:24;4.53;;;4.23;;
6077;SDS011;3067;49.470;10.394;2023-07-28T03:23:51;4.93;;;4.63;;
6077;SDS011;3067;49.470;10.394;2023-07-28T03:26:19;5.03;;;4.53;;
6077;SDS011;3067;49.470;10.394;2023-07-28T03:28:47;5.57;;;4.47;;
6077;SDS011;3067;49.470;10.394;2023-07-28T03:31:15;4.70;;;4.40;;
6077;SDS011;3067;49.470;10.394;2023-07-28T03:33:43;7.57;;;4.37;;
6077;SDS011;3067;49.470;10.394;2023-07-28T03:36:11;4.30;;;4.10;;
6077;SDS011;3067;49.470;10.394;2023-07-28T03:38:38;5.17;;;4.37;;
6077;SDS011;3067;49.470;10.394;2023-07-28T03:41:06;4.77;;;4.30;;
6077;SDS011;3067;49.470;10.394;2023-07-28T03:43:33;4.73;;;4.27;;
6077;SDS011;3067;49.470;10.394;2023-07-28T03:46:02;4.87;;;4.47;;
6077;SDS011;3067;49.470;10.394;2023-07-28T03:48:30;5.20;;;4.80;;
6077;SDS011;3067;49.470;10.394;2023-07-28T03:50:57;9.70;;;5.10;;
6077;SDS011;3067;49.470;10.394;2023-07-28T03:53:24;4.80;;;4.47;;
6077;SDS011;3067;49.470;10.394;2023-07-28T03:55:52;9.83;;;4.00;;
6077;SDS011;3067;49.470;10.394;2023-07-28T03:58:23;4.73;;;4.40;;
6077;SDS011;3067;49.470;10.394;2023-07-28T04:00:50;4.57;;;4.17;;
6077;SDS011;3067;49.470;10.394;2023-07-28T04:03:20;4.93;;;4.00;;
6077;SDS011;3067;49.470;10.394;2023-07-28T04:05:47;5.83;;;4.43;;
6077;SDS011;3067;49.470;10.394;2023-07-28T04:08:15;4.90;;;4.50;;
6077;SDS011;3067;49.470;10.394;2023-07-28T04:10:42;4.37;;;4.07;;
6077;SDS011;3067;49.470;10.394;2023-07-28T04:13:09;4.70;;;4.27;;
6077;SDS011;3067;49.470;10.394;2023-07-28T04:15:37;4.30;;;4.00;;
6077;SDS011;3067;49.470;10.394;2023-07-28T04:18:04;4.97;;;4.57;;
6077;SDS011;3067;49.470;10.394;2023-07-28T04:20:33;5.07;;;4.67;;
6077;SDS011;3067;49.470;10.394;2023-07-28T04:23:00;4.73;;;4.30;;
6077;SDS011;3067;49.470;10.394;2023-07-28T04:25:28;5.73;;;4.30;;
6077;SDS011;3067;49.470;10.394;2023-07-28T04:27:55;4.50;;;4.20;;
6077;SDS011;3067;49.470;10.394;2023-07-28T04:30:23;4.33;;;4.10;;
6077;SDS011;3067;49.470;10.394;2023-07-28T04:32:50;4.17;;;3.93;;
6077;SDS011;3067;49.470;10.394;2023-07-28T04:35:18;4.63;;;4.33;;
6077;SDS011;3067;49.470;10.394;2023-07-28T04:37:47;4.20;;;4.00;;
6077;SDS011;3067;49.470;10.394;2023-07-28T04:40:14;5.07;;;4.30;;
6077;SDS011;3067;49.470;10.394;2023-07-28T04:42:43;6.23;;;3.73;;
6077;SDS011;3067;49.470;10.394;2023-07-28T04:45:11;3.73;;;3.53;;
6077;SDS011;3067;49.470;10.394;2023-07-28T04:47:38;7.60;;;3.90;;
6077;SDS011;3067;49.470;10.394;2023-07-28T04:50:06;8.03;;;4.00;;
6077;SDS011;3067;49.470;10.394;2023-07-28T04:52:33;4.40;;;4.00;;
6077;SDS011;3067;49.470;10.394;2023-07-28T04:55:02;3.83;;;3.63;;
6077;SDS011;3067;49.470;10.394;2023-07-28T04:57:30;6.30;;;3.50;;
6077;SDS011;3067;49.470;10.394;2023-07-28T04:59:57;4.83;;;3.10;;
6077;SDS011;3067;49.470;10.394;2023-07-28T05:02:25;3.60;;;3.40;;
6077;SDS011;3067;49.470;10.394;2023-07-28T05:04:52;4.30;;;3.30;;
6077;SDS011;3067;49.470;10.394;2023-07-28T05:07:19;3.77;;;3.37;;
6077;SDS011;3067;49.470;10.394;2023-07-28T05:09:47;6.47;;;3.23;;
6077;SDS011;3067;49.470;10.394;2023-07-28T05:12:16;3.00;;;2.90;;
6077;SDS011;3067;49.470;10.394;2023-07-28T05:14:43;5.30;;;3.70;;
6077;SDS011;3067;49.470;10.394;2023-07-28T05:17:11;3.43;;;3.13;;
6077;SDS011;3067;49.470;10.394;2023-07-28T05:19:38;3.20;;;3.10;;
6077;SDS011;3067;49.470;10.394;2023-07-28T05:22:05;3.63;;;3.30;;
6077;SDS011;3067;49.470;10.394;2023-07-28T05:24:33;3.20;;;3.10;;
6077;SDS011;3067;49.470;10.394;2023-07-28T05:27:00;7.07;;;3.53;;
6077;SDS011;3067;49.470;10.394;2023-07-28T05:29:29;9.77;;;3.40;;
6077;SDS011;3067;49.470;10.394;2023-07-28T05:31:58;3.47;;;3.27;;
6077;SDS011;3067;49.470;10.394;2023-07-28T05:34:25;3.90;;;3.40;;
6077;SDS011;3067;49.470;10.394;2023-07-28T05:36:53;3.50;;;3.30;;
6077;SDS011;3067;49.470;10.394;2023-07-28T05:39:20;5.27;;;3.30;;
6077;SDS011;3067;49.470;10.394;2023-07-28T05:41:48;3.10;;;3.00;;
6077;SDS011;3067;49.470;10.394;2023-07-28T05:44:15;9.93;;;4.10;;
6077;SDS011;3067;49.470;10.394;2023-07-28T05:46:44;3.90;;;3.63;;
6077;SDS011;3067;49.470;10.394;2023-07-28T05:49:13;4.10;;;3.67;;
6077;SDS011;3067;49.470;10.394;2023-07-28T05:51:41;3.93;;;3.73;;
6077;SDS011;3067;49.470;10.394;2023-07-28T05:54:08;3.50;;;3.30;;
6077;SDS011;3067;49.470;10.394;2023-07-28T05:56:38;4.50;;;4.13;;
6077;SDS011;3067;49.470;10.394;2023-07-28T05:59:05;4.37;;;4.07;;
6077;SDS011;3067;49.470;10.394;2023-07-28T06:01:32;8.40;;;4.20;;
6077;SDS011;3067;49.470;10.394;2023-07-28T06:04:01;5.33;;;4.10;;
6077;SDS011;3067;49.470;10.394;2023-07-28T06:06:29;6.30;;;4.37;;
6077;SDS011;3067;49.470;10.394;2023-07-28T06:08:56;7.63;;;3.90;;
6077;SDS011;3067;49.470;10.394;2023-07-28T06:11:23;4.73;;;4.30;;
6077;SDS011;3067;49.470;10.394;2023-07-28T06:13:51;4.27;;;3.87;;
6077;SDS011;3067;49.470;10.394;2023-07-28T06:16:19;4.47;;;4.13;;
6077;SDS011;3067;49.470;10.394;2023-07-28T06:18:46;5.93;;;4.33;;
6077;SDS011;3067;49.470;10.394;2023-07-28T06:21:15;5.77;;;4.80;;
6077;SDS011;3067;49.470;10.394;2023-07-28T06:23:42;3.67;;;3.47;;
6077;SDS011;3067;49.470;10.394;2023-07-28T06:26:13;4.20;;;3.70;;
6077;SDS011;3067;49.470;10.394;2023-07-28T06:28:40;3.83;;;3.63;;
6077;SDS011;3067;49.470;10.394;2023-07-28T06:31:08;5.10;;;3.70;;
6077;SDS011;3067;49.470;10.394;2023-07-28T06:33:36;4.43;;;3.20;;
6077;SDS011;3067;49.470;10.394;2023-07-28T06:36:04;3.97;;;3.67;;
6077;SDS011;3067;49.470;10.394;2023-07-28T06:38:33;6.53;;;3.10;;
6077;SDS011;3067;49.470;10.394;2023-07-28T06:41:00;3.53;;;3.23;;
6077;SDS011;3067;49.470;10.394;2023-07-28T06:43:28;3.20;;;3.00;;
6077;SDS011;3067;49.470;10.394;2023-07-28T06:45:55;3.50;;;3.30;;
6077;SDS011;3067;49.470;10.394;2023-07-28T06:48:23;3.57;;;3.27;;
6077;SDS011;3067;49.470;10.394;2023-07-28T06:50:50;2.90;;;2.80;;
6077;SDS011;3067;49.470;10.394;2023-07-28T06:53:18;5.23;;;3.43;;
6077;SDS011;3067;49.470;10.394;2023-07-28T06:55:47;3.57;;;3.37;;
6077;SDS011;3067;49.470;10.394;2023-07-28T06:58:15;3.50;;;3.27;;
6077;SDS011;3067;49.470;10.394;2023-07-28T07:00:42;5.20;;;3.03;;
6077;SDS011;3067;49.470;10.394;2023-07-28T07:03:10;3.40;;;3.10;;
6077;SDS011;3067;49.470;10.394;2023-07-28T07:05:38;3.40;;;3.20;;
6077;SDS011;3067;49.470;10.394;2023-07-28T07:08:06;3.20;;;3.10;;
6077;SDS011;3067;49.470;10.394;2023-07-28T07:10:33;4.50;;;3.27;;
6077;SDS011;3067;49.470;10.394;2023-07-28T07:13:03;3.03;;;2.83;;
6077;SDS011;3067;49.470;10.394;2023-07-28T07:15:33;2.73;;;2.60;;
6077;SDS011;3067;49.470;10.394;2023-07-28T07:18:02;2.80;;;2.70;;
6077;SDS011;3067;49.470;10.394;2023-07-28T07:20:33;4.37;;;2.90;;
6077;SDS011;3067;49.470;10.394;2023-07-28T07:23:01;2.90;;;2.80;;
6077;SDS011;3067;49.470;10.394;2023-07-28T07:25:28;3.63;;;2.70;;
6077;SDS011;3067;49.470;10.394;2023-07-28T07:27:57;6.50;;;2.50;;
6077;SDS011;3067;49.470;10.394;2023-07-28T07:30:25;3.00;;;2.43;;
6077;SDS011;3067;49.470;10.394;2023-07-28T07:32:53;2.57;;;2.40;;
6077;SDS011;3067;49.470;10.394;2023-07-28T07:35:20;3.37;;;2.37;;
6077;SDS011;3067;49.470;10.394;2023-07-28T07:37:47;2.57;;;2.37;;
6077;SDS011;3067;49.470;10.394;2023-07-28T07:40:15;2.90;;;2.27;;
6077;SDS011;3067;49.470;10.394;2023-07-28T07:42:43;2.07;;;1.97;;
6077;SDS011;3067;49.470;10.394;2023-07-28T07:45:11;2.03;;;1.83;;
6077;SDS011;3067;49.470;10.394;2023-07-28T07:47:40;1.90;;;1.80;;
6077;SDS011;3067;49.470;10.394;2023-07-28T07:50:08;1.90;;;1.80;;
6077;SDS011;3067;49.470;10.394;2023-07-28T07:52:36;1.73;;;1.73;;
6077;SDS011;3067;49.470;10.394;2023-07-28T07:55:03;1.90;;;1.77;;
6077;SDS011;3067;49.470;10.394;2023-07-28T07:57:31;1.50;;;1.50;;
6077;SDS011;3067;49.470;10.394;2023-07-28T07:59:58;1.80;;;1.80;;
6077;SDS011;3067;49.470;10.394;2023-07-28T08:02:26;3.03;;;1.67;;
6077;SDS011;3067;49.470;10.394;2023-07-28T08:04:55;1.60;;;1.50;;
6077;SDS011;3067;49.470;10.394;2023-07-28T08:07:22;1.93;;;1.83;;
6077;SDS011;3067;49.470;10.394;2023-07-28T08:09:50;1.60;;;1.50;;
6077;SDS011;3067;49.470;10.394;2023-07-28T08:12:17;1.30;;;1.30;;
6077;SDS011;3067;49.470;10.394;2023-07-28T08:14:45;1.47;;;1.47;;
6077;SDS011;3067;49.470;10.394;2023-07-28T08:17:13;1.60;;;1.50;;
6077;SDS011;3067;49.470;10.394;2023-07-28T08:19:40;2.37;;;1.50;;
6077;SDS011;3067;49.470;10.394;2023-07-28T08:22:09;1.67;;;1.67;;
6077;SDS011;3067;49.470;10.394;2023-07-28T08:24:37;2.50;;;1.40;;
6077;SDS011;3067;49.470;10.394;2023-07-28T08:27:05;1.40;;;1.40;;
6077;SDS011;3067;49.470;10.394;2023-07-28T08:29:32;1.63;;;1.63;;
6077;SDS011;3067;49.470;10.394;2023-07-28T08:32:01;3.67;;;1.63;;
6077;SDS011;3067;49.470;10.394;2023-07-28T08:34:29;2.23;;;1.80;;
6077;SDS011;3067;49.470;10.394;2023-07-28T08:36:57;4.03;;;1.50;;
6077;SDS011;3067;49.470;10.394;2023-07-28T08:39:26;2.50;;;1.83;;
6077;SDS011;3067;49.470;10.394;2023-07-28T08:41:59;1.90;;;1.80;;
6077;SDS011;3067;49.470;10.394;2023-07-28T08:44:28;1.70;;;1.70;;
6077;SDS011;3067;49.470;10.394;2023-07-28T08:46:56;1.80;;;1.70;;
6077;SDS011;3067;49.470;10.394;2023-07-28T08:49:23;2.00;;;2.00;;
6077;SDS011;3067;49.470;10.394;2023-07-28T08:51:51;1.87;;;1.87;;
6077;SDS011;3067;49.470;10.394;2023-07-28T08:54:19;1.70;;;1.70;;
6077;SDS011;3067;49.470;10.394;2023-07-28T08:56:49;1.77;;;1.77;;
6077;SDS011;3067;49.470;10.394;2023-07-28T08:59:20;2.03;;;1.80;;
6077;SDS011;3067;49.470;10.394;2023-07-28T09:01:49;1.90;;;1.80;;
6077;SDS011;3067;49.470;10.394;2023-07-28T09:04:16;1.97;;;1.80;;
6077;SDS011;3067;49.470;10.394;2023-07-28T09:06:45;2.00;;;1.90;;
6077;SDS011;3067;49.470;10.394;2023-07-28T09:09:13;4.70;;;2.10;;
6077;SDS011;3067;49.470;10.394;2023-07-28T09:11:44;5.13;;;1.67;;
6077;SDS011;3067;49.470;10.394;2023-07-28T09:14:13;2.20;;;2.10;;
6077;SDS011;3067;49.470;10.394;2023-07-28T09:16:41;1.87;;;1.87;;
6077;SDS011;3067;49.470;10.394;2023-07-28T09:19:09;1.93;;;1.93;;
6077;SDS011;3067;49.470;10.394;2023-07-28T09:21:37;2.50;;;2.30;;
6077;SDS011;3067;49.470;10.394;2023-07-28T09:24:05;3.03;;;2.40;;
6077;SDS011;3067;49.470;10.394;2023-07-28T09:26:36;3.00;;;2.30;;
6077;SDS011;3067;49.470;10.394;2023-07-28T09:29:10;3.80;;;2.40;;
6077;SDS011;3067;49.470;10.394;2023-07-28T09:31:39;2.37;;;2.17;;
6077;SDS011;3067;49.470;10.394;2023-07-28T09:34:07;2.47;;;2.37;;
6077;SDS011;3067;49.470;10.394;2023-07-28T09:36:34;2.90;;;2.70;;
6077;SDS011;3067;49.470;10.394;2023-07-28T09:39:03;6.30;;;2.90;;
6077;SDS011;3067;49.470;10.394;2023-07-28T09:41:32;2.13;;;2.03;;
6077;SDS011;3067;49.470;10.394;2023-07-28T09:44:01;2.27;;;2.20;;
6077;SDS011;3067;49.470;10.394;2023-07-28T09:46:29;3.67;;;2.40;;
6077;SDS011;3067;49.470;10.394;2023-07-28T09:48:59;4.63;;;2.30;;
6077;SDS011;3067;49.470;10.394;2023-07-28T09:51:28;2.27;;;2.10;;
6077;SDS011;3067;49.470;10.394;2023-07-28T09:53:58;2.20;;;2.10;;
6077;SDS011;3067;49.470;10.394;2023-07-28T09:56:27;2.00;;;2.00;;
6077;SDS011;3067;49.470;10.394;2023-07-28T09:58:55;3.13;;;1.87;;
6077;SDS011;3067;49.470;10.394;2023-07-28T10:01:23;2.30;;;2.20;;
6077;SDS011;3067;49.470;10.394;2023-07-28T10:03:51;1.87;;;1.77;;
6077;SDS011;3067;49.470;10.394;2023-07-28T10:06:20;1.80;;;1.70;;
6077;SDS011;3067;49.470;10.394;2023-07-28T10:08:48;1.80;;;1.70;;
6077;SDS011;3067;49.470;10.394;2023-07-28T10:11:16;1.67;;;1.60;;
6077;SDS011;3067;49.470;10.394;2023-07-28T10:13:44;1.40;;;1.40;;
6077;SDS011;3067;49.470;10.394;2023-07-28T10:16:12;1.40;;;1.40;;
6077;SDS011;3067;49.470;10.394;2023-07-28T10:18:40;1.63;;;1.37;;
6077;SDS011;3067;49.470;10.394;2023-07-28T10:21:08;1.30;;;1.30;;
6077;SDS011;3067;49.470;10.394;2023-07-28T10:23:39;1.70;;;1.60;;
6077;SDS011;3067;49.470;10.394;2023-07-28T10:26:07;1.63;;;1.63;;
6077;SDS011;3067;49.470;10.394;2023-07-28T10:28:35;1.60;;;1.50;;
6077;SDS011;3067;49.470;10.394;2023-07-28T10:31:04;1.73;;;1.30;;
6077;SDS011;3067;49.470;10.394;2023-07-28T10:33:32;1.57;;;1.57;;
6077;SDS011;3067;49.470;10.394;2023-07-28T10:36:10;1.40;;;1.40;;
6077;SDS011;3067;49.470;10.394;2023-07-28T10:38:43;1.77;;;1.67;;
6077;SDS011;3067;49.470;10.394;2023-07-28T10:41:12;1.50;;;1.50;;
6077;SDS011;3067;49.470;10.394;2023-07-28T10:43:40;1.43;;;1.43;;
6077;SDS011;3067;49.470;10.394;2023-07-28T10:46:08;2.50;;;1.57;;
6077;SDS011;3067;49.470;10.394;2023-07-28T10:48:36;4.93;;;1.60;;
6077;SDS011;3067;49.470;10.394;2023-07-28T10:51:04;3.33;;;1.50;;
6077;SDS011;3067;49.470;10.394;2023-07-28T10:53:32;1.60;;;1.50;;
6077;SDS011;3067;49.470;10.394;2023-07-28T10:56:02;1.37;;;1.37;;
6077;SDS011;3067;49.470;10.394;2023-07-28T10:58:30;1.20;;;1.20;;
6077;SDS011;3067;49.470;10.394;2023-07-28T11:00:59;1.27;;;1.27;;
6077;SDS011;3067;49.470;10.394;2023-07-28T11:06:07;1.10;;;1.10;;
6077;SDS011;3067;49.470;10.394;2023-07-28T11:08:35;1.10;;;1.10;;
6077;SDS011;3067;49.470;10.394;2023-07-28T11:11:05;1.00;;;1.00;;
6077;SDS011;3067;49.470;10.394;2023-07-28T11:13:33;1.10;;;1.00;;
6077;SDS011;3067;49.470;10.394;2023-07-28T11:16:00;1.17;;;1.17;;
6077;SDS011;3067;49.470;10.394;2023-07-28T11:18:29;1.27;;;1.00;;
6077;SDS011;3067;49.470;10.394;2023-07-28T11:20:57;1.30;;;1.30;;
6077;SDS011;3067;49.470;10.394;2023-07-28T11:23:24;1.30;;;1.30;;
6077;SDS011;3067;49.470;10.394;2023-07-28T11:25:52;5.03;;;1.30;;
6077;SDS011;3067;49.470;10.394;2023-07-28T11:28:21;1.10;;;1.10;;
6077;SDS011;3067;49.470;10.394;2023-07-28T11:30:50;1.10;;;1.10;;
6077;SDS011;3067;49.470;10.394;2023-07-28T11:33:17;1.10;;;1.10;;
6077;SDS011;3067;49.470;10.394;2023-07-28T11:35:46;2.10;;;1.07;;
6077;SDS011;3067;49.470;10.394;2023-07-28T11:38:14;5.27;;;1.10;;
6077;SDS011;3067;49.470;10.394;2023-07-28T11:40:41;1.37;;;1.10;;
6077;SDS011;3067;49.470;10.394;2023-07-28T11:43:09;1.20;;;1.10;;
6077;SDS011;3067;49.470;10.394;2023-07-28T11:45:38;2.10;;;1.07;;
6077;SDS011;3067;49.470;10.394;2023-07-28T11:48:06;1.57;;;0.97;;
6077;SDS011;3067;49.470;10.394;2023-07-28T11:50:34;1.00;;;1.00;;
6077;SDS011;3067;49.470;10.394;2023-07-28T11:53:02;1.10;;;1.10;;
6077;SDS011;3067;49.470;10.394;2023-07-28T11:55:33;1.20;;;1.20;;
6077;SDS011;3067;49.470;10.394;2023-07-28T11:58:00;1.40;;;1.10;;
6077;SDS011;3067;49.470;10.394;2023-07-28T12:00:30;1.30;;;1.20;;
6077;SDS011;3067;49.470;10.394;2023-07-28T12:03:07;1.50;;;1.40;;
6077;SDS011;3067;49.470;10.394;2023-07-28T12:05:36;1.00;;;1.00;;
6077;SDS011;3067;49.470;10.394;2023-07-28T12:08:03;1.53;;;1.53;;
6077;SDS011;3067;49.470;10.394;2023-07-28T12:10:32;1.53;;;1.53;;
6077;SDS011;3067;49.470;10.394;2023-07-28T12:13:03;1.40;;;1.30;;
6077;SDS011;3067;49.470;10.394;2023-07-28T12:15:31;1.90;;;1.80;;
6077;SDS011;3067;49.470;10.394;2023-07-28T12:18:05;1.50;;;1.50;;
6077;SDS011;3067;49.470;10.394;2023-07-28T12:20:35;5.67;;;2.00;;
6077;SDS011;3067;49.470;10.394;2023-07-28T12:23:03;1.40;;;1.30;;
6077;SDS011;3067;49.470;10.394;2023-07-28T12:25:30;1.10;;;1.10;;
6077;SDS011;3067;49.470;10.394;2023-07-28T12:27:58;1.10;;;1.10;;
6077;SDS011;3067;49.470;10.394;2023-07-28T12:30:26;2.10;;;1.10;;
6077;SDS011;3067;49.470;10.394;2023-07-28T12:32:53;0.97;;;0.97;;
6077;SDS011;3067;49.470;10.394;2023-07-28T12:35:21;1.20;;;1.10;;
6077;SDS011;3067;49.470;10.394;2023-07-28T12:37:51;1.33;;;1.33;;
6077;SDS011;3067;49.470;10.394;2023-07-28T12:40:18;5.10;;;1.47;;
6077;SDS011;3067;49.470;10.394;2023-07-28T12:42:46;2.13;;;1.53;;
6077;SDS011;3067;49.470;10.394;2023-07-28T12:45:14;1.20;;;1.20;;
6077;SDS011;3067;49.470;10.394;2023-07-28T12:47:42;1.23;;;1.23;;
6077;SDS011;3067;49.470;10.394;2023-07-28T12:50:09;2.00;;;1.20;;
6077;SDS011;3067;49.470;10.394;2023-07-28T12:52:37;1.30;;;1.20;;
6077;SDS011;3067;49.470;10.394;2023-07-28T12:55:06;2.50;;;1.40;;
6077;SDS011;3067;49.470;10.394;2023-07-28T12:57:34;9.13;;;1.33;;
6077;SDS011;3067;49.470;10.394;2023-07-28T13:00:01;2.30;;;1.20;;
6077;SDS011;3067;49.470;10.394;2023-07-28T13:02:33;3.33;;;1.10;;
6077;SDS011;3067;49.470;10.394;2023-07-28T13:05:00;1.37;;;1.37;;
6077;SDS011;3067;49.470;10.394;2023-07-28T13:07:28;1.30;;;1.20;;
6077;SDS011;3067;49.470;10.394;2023-07-28T13:09:55;1.53;;;1.30;;
6077;SDS011;3067;49.470;10.394;2023-07-28T13:12:24;1.40;;;1.30;;
6077;SDS011;3067;49.470;10.394;2023-07-28T13:14:52;1.27;;;1.13;;
6077;SDS011;3067;49.470;10.394;2023-07-28T13:17:19;1.10;;;1.10;;
6077;SDS011;3067;49.470;10.394;2023-07-28T13:19:47;1.83;;;1.20;;
6077;SDS011;3067;49.470;10.394;2023-07-28T13:22:14;1.80;;;1.70;;
6077;SDS011;3067;49.470;10.394;2023-07-28T13:24:41;1.33;;;1.30;;
6077;SDS011;3067;49.470;10.394;2023-07-28T13:27:09;4.30;;;1.93;;
6077;SDS011;3067;49.470;10.394;2023-07-28T13:29:38;1.47;;;1.47;;
6077;SDS011;3067;49.470;10.394;2023-07-28T13:32:16;1.50;;;1.40;;
6077;SDS011;3067;49.470;10.394;2023-07-28T13:34:44;1.87;;;1.30;;
6077;SDS011;3067;49.470;10.394;2023-07-28T13:37:12;6.67;;;1.77;;
6077;SDS011;3067;49.470;10.394;2023-07-28T13:39:39;2.30;;;1.23;;
6077;SDS011;3067;49.470;10.394;2023-07-28T13:42:07;2.80;;;1.50;;
6077;SDS011;3067;49.470;10.394;2023-07-28T13:44:34;1.50;;;1.50;;
6077;SDS011;3067;49.470;10.394;2023-07-28T13:47:03;1.97;;;1.40;;
6077;SDS011;3067;49.470;10.394;2023-07-28T13:49:31;1.73;;;1.20;;
6077;SDS011;3067;49.470;10.394;2023-07-28T13:52:00;1.30;;;1.30;;
6077;SDS011;3067;49.470;10.394;2023-07-28T13:54:28;2.77;;;1.43;;
6077;SDS011;3067;49.470;10.394;2023-07-28T13:56:55;1.83;;;1.80;;
6077;SDS011;3067;49.470;10.394;2023-07-28T13:59:23;1.60;;;1.60;;
6077;SDS011;3067;49.470;10.394;2023-07-28T14:01:50;1.67;;;1.67;;
6077;SDS011;3067;49.470;10.394;2023-07-28T14:04:19;1.53;;;1.53;;
6077;SDS011;3067;49.470;10.394;2023-07-28T14:06:46;1.80;;;1.80;;
6077;SDS011;3067;49.470;10.394;2023-07-28T14:09:14;1.90;;;1.80;;
6077;SDS011;3067;49.470;10.394;2023-07-28T14:11:41;3.03;;;1.90;;
6077;SDS011;3067;49.470;10.394;2023-07-28T14:14:09;1.73;;;1.60;;
6077;SDS011;3067;49.470;10.394;2023-07-28T14:16:36;1.60;;;1.60;;
6077;SDS011;3067;49.470;10.394;2023-07-28T14:19:04;1.13;;;1.13;;
6077;SDS011;3067;49.470;10.394;2023-07-28T14:21:32;1.23;;;1.23;;
6077;SDS011;3067;49.470;10.394;2023-07-28T14:24:00;1.20;;;1.20;;
6077;SDS011;3067;49.470;10.394;2023-07-28T14:26:29;1.50;;;1.40;;
6077;SDS011;3067;49.470;10.394;2023-07-28T14:28:56;1.43;;;1.27;;
6077;SDS011;3067;49.470;10.394;2023-07-28T14:31:23;1.30;;;1.20;;
6077;SDS011;3067;49.470;10.394;2023-07-28T14:33:51;3.90;;;1.27;;
6077;SDS011;3067;49.470;10.394;2023-07-28T14:36:18;1.13;;;1.03;;
6077;SDS011;3067;49.470;10.394;2023-07-28T14:38:47;1.00;;;1.00;;
6077;SDS011;3067;49.470;10.394;2023-07-28T14:41:14;1.27;;;1.17;;
6077;SDS011;3067;49.470;10.394;2023-07-28T14:43:42;1.00;;;1.00;;
6077;SDS011;3067;49.470;10.394;2023-07-28T14:46:13;1.27;;;0.90;;
6077;SDS011;3067;49.470;10.394;2023-07-28T14:48:41;0.90;;;0.90;;
6077;SDS011;3067;49.470;10.394;2023-07-28T14:51:08;1.43;;;0.80;;
6077;SDS011;3067;49.470;10.394;2023-07-28T14:53:36;0.80;;;0.80;;
6077;SDS011;3067;49.470;10.394;2023-07-28T14:56:06;0.70;;;0.70;;
6077;SDS011;3067;49.470;10.394;2023-07-28T14:58:34;0.70;;;0.70;;
6077;SDS011;3067;49.470;10.394;2023-07-28T15:01:01;0.80;;;0.80;;
6077;SDS011;3067;49.470;10.394;2023-07-28T15:03:30;0.80;;;0.80;;
6077;SDS011;3067;49.470;10.394;2023-07-28T15:05:58;4.30;;;0.80;;
6077;SDS011;3067;49.470;10.394;2023-07-28T15:08:25;1.70;;;1.00;;